Terminal Aerodrome Forecast
Issued by NWS

Home | Current Version | Previous Version | Text Only | Print | Product List | Glossary On
Versions: 1 2 3 4 5 6 7 8 9 10 11 12 13 14 15 16 17 18 19 20 21 22 23
000
FTUS45 KBOU 191720
TAFBJC
TAF
KBJC 191720Z 1918/2018 VRB05KT P6SM FEW140 BKN220
     FM191900 25015G25KT P6SM FEW220
     FM200100 25012KT P6SM FEW120 SCT200
     FM200400 03012KT P6SM SCT080 SCT120
     FM200700 08008KT P6SM SCT080 SCT120
     FM201200 VRB05KT P6SM FEW120 SCT200=

USA.gov is the U.S. government's official web portal to all federal, state and local government web resources and services.